createdAt,value
2023-05-14T00:01:55.614Z,100575.25
2023-05-14T00:04:25.286Z,100588.53
2023-05-14T00:06:53.399Z,100581.22
2023-05-14T00:09:21.681Z,100586.88
2023-05-14T00:11:49.678Z,100574.59
2023-05-14T00:14:17.919Z,100575.00
2023-05-14T00:16:45.934Z,100574.34
2023-05-14T00:19:14.386Z,100577.84
2023-05-14T00:21:43.896Z,100574.31
2023-05-14T00:24:12.161Z,100577.06
2023-05-14T00:26:40.176Z,100569.84
2023-05-14T00:29:08.597Z,100568.06
2023-05-14T00:31:37.023Z,100568.69
2023-05-14T00:34:05.840Z,100577.78
2023-05-14T00:36:33.889Z,100579.13
2023-05-14T00:39:03.744Z,100562.72
2023-05-14T00:41:31.814Z,100571.38
2023-05-14T00:44:00.170Z,100563.34
2023-05-14T00:46:28.498Z,100566.03
2023-05-14T00:48:57.032Z,100559.56
2023-05-14T00:51:25.835Z,100556.97
2023-05-14T00:53:54.278Z,100557.44
2023-05-14T00:56:23.841Z,100550.03
2023-05-14T00:58:52.244Z,100553.78
2023-05-14T01:01:20.310Z,100559.34
2023-05-14T01:03:49.999Z,100561.75
2023-05-14T01:06:24.958Z,100556.97
2023-05-14T01:09:00.577Z,100558.16
2023-05-14T01:11:32.290Z,100560.81
2023-05-14T01:14:04.776Z,100547.50
2023-05-14T01:16:34.942Z,100553.38
2023-05-14T01:19:03.804Z,100549.66
2023-05-14T01:21:40.750Z,100550.72
2023-05-14T01:24:09.461Z,100539.94
2023-05-14T01:26:37.734Z,100541.59
2023-05-14T01:29:12.764Z,100542.44
2023-05-14T01:31:41.861Z,100533.63
2023-05-14T01:34:10.452Z,100537.09
2023-05-14T01:36:40.109Z,100530.34
2023-05-14T01:39:09.951Z,100534.13
2023-05-14T01:41:42.997Z,100527.66
2023-05-14T01:44:11.632Z,100535.22
2023-05-14T01:46:39.800Z,100538.97
2023-05-14T01:49:08.230Z,100552.28
2023-05-14T01:51:36.421Z,100540.31
2023-05-14T01:54:06.236Z,100544.81
2023-05-14T01:56:34.281Z,100550.19
2023-05-14T01:59:02.821Z,100552.06
2023-05-14T02:01:31.690Z,100553.41
2023-05-14T02:04:01.020Z,100545.38
2023-05-14T02:06:29.138Z,100539.75
2023-05-14T02:08:57.627Z,100543.22
2023-05-14T02:11:27.199Z,100545.69
2023-05-14T02:13:55.493Z,100538.97
2023-05-14T02:16:23.604Z,100533.34
2023-05-14T02:18:53.262Z,100544.84
2023-05-14T02:21:21.297Z,100538.41
2023-05-14T02:23:50.142Z,100536.84
2023-05-14T02:26:18.204Z,100544.84
2023-05-14T02:28:47.856Z,100537.94
2023-05-14T02:31:17.586Z,100533.41
2023-05-14T02:33:46.055Z,100525.19
2023-05-14T02:36:14.229Z,100538.97
2023-05-14T02:38:42.503Z,100539.75
2023-05-14T02:41:10.483Z,100535.28
2023-05-14T02:43:39.401Z,100542.75
2023-05-14T02:46:08.880Z,100539.56
2023-05-14T02:48:37.136Z,100534.03
2023-05-14T02:51:05.214Z,100540.16
2023-05-14T02:53:33.507Z,100536.94
2023-05-14T02:56:01.508Z,100542.31
2023-05-14T02:58:29.835Z,100530.03
2023-05-14T03:00:57.886Z,100538.56
2023-05-14T03:03:28.106Z,100533.22
2023-05-14T03:05:56.664Z,100532.69
2023-05-14T03:08:24.988Z,100535.06
2023-05-14T03:10:53.018Z,100532.69
2023-05-14T03:13:21.270Z,100535.34
2023-05-14T03:15:49.386Z,100514.03
2023-05-14T03:18:17.658Z,100525.50
2023-05-14T03:20:48.751Z,100527.31
2023-05-14T03:23:17.046Z,100521.47
2023-05-14T03:25:45.054Z,100534.78
2023-05-14T03:28:13.264Z,100538.47
2023-05-14T03:30:41.448Z,100533.13
2023-05-14T03:33:09.945Z,100533.66
2023-05-14T03:35:38.107Z,100533.66
2023-05-14T03:38:07.729Z,100531.28
2023-05-14T03:40:36.072Z,100532.59
2023-05-14T03:43:04.434Z,100538.91
2023-05-14T03:45:32.924Z,100536.00
2023-05-14T03:48:01.139Z,100531.09
2023-05-14T03:50:29.914Z,100541.53
2023-05-14T03:52:58.253Z,100541.38
2023-05-14T03:55:27.643Z,100540.25
2023-05-14T03:57:55.906Z,100547.09
2023-05-14T04:00:24.692Z,100544.66
2023-05-14T04:02:55.530Z,100537.50
2023-05-14T04:05:25.184Z,100541.00
2023-05-14T04:07:53.488Z,100540.19
2023-05-14T04:10:22.151Z,100540.19
2023-05-14T04:12:52.082Z,100536.47
2023-05-14T04:15:20.283Z,100534.88
2023-05-14T04:17:48.670Z,100535.94
2023-05-14T04:20:16.847Z,100538.06
2023-05-14T04:22:45.582Z,100540.75
2023-05-14T04:25:13.576Z,100541.94
2023-05-14T04:27:41.902Z,100536.38
2023-05-14T04:30:12.471Z,100542.28
2023-05-14T04:32:40.769Z,100531.75
2023-05-14T04:35:10.172Z,100534.19
2023-05-14T04:37:38.513Z,100538.78
2023-05-14T04:40:08.895Z,100541.00
2023-05-14T04:42:37.128Z,100535.94
2023-05-14T04:45:06.174Z,100536.81
2023-05-14T04:47:35.944Z,100544.31
2023-05-14T04:50:04.209Z,100543.50
2023-05-14T04:52:32.423Z,100544.78
2023-05-14T04:55:00.476Z,100541.00
2023-05-14T04:57:28.847Z,100541.03
2023-05-14T04:59:56.872Z,100546.91
2023-05-14T05:02:25.136Z,100545.41
2023-05-14T05:04:54.550Z,100544.34
2023-05-14T05:07:22.784Z,100546.47
2023-05-14T05:09:51.025Z,100550.19
2023-05-14T05:12:19.308Z,100539.06
2023-05-14T05:14:47.268Z,100541.72
2023-05-14T05:17:15.709Z,100545.72
2023-05-14T05:19:44.630Z,100548.41
2023-05-14T05:22:14.364Z,100547.06
2023-05-14T05:24:42.404Z,100551.59
2023-05-14T05:27:10.667Z,100551.34
2023-05-14T05:29:38.728Z,100555.06
2023-05-14T05:32:08.218Z,100555.31
2023-05-14T05:34:36.731Z,100558.78
2023-05-14T05:37:06.050Z,100554.53
2023-05-14T05:39:35.627Z,100557.75
2023-05-14T05:42:04.293Z,100559.06
2023-05-14T05:44:32.257Z,100562.56
2023-05-14T05:47:00.628Z,100555.34
2023-05-14T05:49:28.798Z,100556.69
2023-05-14T05:51:57.508Z,100558.28
2023-05-14T05:54:25.757Z,100551.34
2023-05-14T05:56:55.512Z,100561.19
2023-05-14T05:59:23.456Z,100557.22
2023-05-14T06:01:51.759Z,100554.53
2023-05-14T06:04:20.168Z,100553.47
2023-05-14T06:06:48.373Z,100550.81
2023-05-14T06:09:16.504Z,100554.81
2023-05-14T06:11:44.739Z,100552.41
2023-05-14T06:14:14.120Z,100555.84
2023-05-14T06:16:42.506Z,100554.53
2023-05-14T06:19:11.133Z,100549.97
2023-05-14T06:21:39.578Z,100547.56
2023-05-14T06:24:08.096Z,100545.44
2023-05-14T06:26:36.422Z,100549.69
2023-05-14T06:29:04.398Z,100547.03
2023-05-14T06:31:34.040Z,100551.28
2023-05-14T06:34:02.050Z,100549.41
2023-05-14T06:36:30.318Z,100543.75
2023-05-14T06:38:58.458Z,100544.81
2023-05-14T06:41:26.844Z,100535.03
2023-05-14T06:43:55.207Z,100540.25
2023-05-14T06:46:23.537Z,100537.25
2023-05-14T06:48:52.994Z,100544.97
2023-05-14T06:51:21.345Z,100529.69
2023-05-14T06:53:49.391Z,100541.06
2023-05-14T06:56:17.664Z,100538.94
2023-05-14T06:58:45.629Z,100539.56
2023-05-14T07:01:14.135Z,100527.78
2023-05-14T07:03:42.166Z,100533.75
2023-05-14T07:06:13.561Z,100529.19
2023-05-14T07:08:42.183Z,100526.25
2023-05-14T07:11:10.404Z,100533.47
2023-05-14T07:13:38.443Z,100530.56
2023-05-14T07:16:08.802Z,100525.28
2023-05-14T07:18:36.804Z,100522.59
2023-05-14T07:21:06.494Z,100514.28
2023-05-14T07:23:36.459Z,100522.25
2023-05-14T07:26:05.604Z,100518.19
2023-05-14T07:28:33.886Z,100511.19
2023-05-14T07:31:02.192Z,100508.50
2023-05-14T07:33:30.250Z,100506.53
2023-05-14T07:35:58.545Z,100506.47
2023-05-14T07:38:26.683Z,100499.97
2023-05-14T07:40:56.419Z,100493.28
2023-05-14T07:43:24.427Z,100497.78
2023-05-14T07:45:52.899Z,100489.09
2023-05-14T07:48:21.014Z,100494.25
2023-05-14T07:50:49.788Z,100490.41
2023-05-14T07:53:17.909Z,100488.16
2023-05-14T07:55:48.046Z,100486.56
2023-05-14T07:58:17.447Z,100476.75
2023-05-14T08:00:45.783Z,100480.97
2023-05-14T08:03:13.997Z,100476.56
2023-05-14T08:05:42.249Z,100476.56
2023-05-14T08:08:10.281Z,100480.03
2023-05-14T08:10:39.003Z,100475.56
2023-05-14T08:13:07.385Z,100480.50
2023-05-14T08:15:37.024Z,100478.06
2023-05-14T08:18:05.209Z,100470.66
2023-05-14T08:20:33.526Z,100468.63
2023-05-14T08:23:01.602Z,100466.19
2023-05-14T08:25:29.976Z,100461.28
2023-05-14T08:27:59.644Z,100466.78
2023-05-14T08:30:28.338Z,100459.06
2023-05-14T08:32:59.031Z,100455.66
2023-05-14T08:35:27.357Z,100455.66
2023-05-14T08:37:56.821Z,100459.28
2023-05-14T08:40:25.400Z,100449.47
2023-05-14T08:42:54.038Z,100448.06
2023-05-14T08:45:25.924Z,100455.97
2023-05-14T08:47:54.282Z,100455.41
2023-05-14T08:50:24.298Z,100456.41
2023-05-14T08:52:52.710Z,100457.09
2023-05-14T08:55:21.120Z,100452.34
2023-05-14T08:57:49.614Z,100456.84
2023-05-14T09:00:18.601Z,100459.22
2023-05-14T09:02:47.615Z,100447.13
2023-05-14T09:05:16.312Z,100448.44
2023-05-14T09:07:45.854Z,100455.97
2023-05-14T09:10:15.340Z,100451.06
2023-05-14T09:12:43.390Z,100454.75
2023-05-14T09:15:12.000Z,100453.47
2023-05-14T09:17:40.031Z,100452.56
2023-05-14T09:20:10.470Z,100452.97
2023-05-14T09:22:39.887Z,100445.84
2023-05-14T09:25:12.133Z,100450.03
2023-05-14T09:27:40.225Z,100442.78
2023-05-14T09:30:10.237Z,100445.09
2023-05-14T09:32:39.738Z,100439.13
2023-05-14T09:35:17.454Z,100438.13
2023-05-14T09:37:47.301Z,100431.00
2023-05-14T09:40:19.042Z,100442.56
2023-05-14T09:42:48.102Z,100428.03
2023-05-14T09:45:16.582Z,100434.97
2023-05-14T09:47:45.098Z,100430.28
2023-05-14T09:50:13.815Z,100436.34
2023-05-14T09:52:41.834Z,100432.06
2023-05-14T09:55:10.577Z,100431.94
2023-05-14T09:57:40.636Z,100426.94
2023-05-14T10:00:10.321Z,100426.53
2023-05-14T10:02:40.892Z,100432.50
2023-05-14T10:05:10.161Z,100429.31
2023-05-14T10:07:42.574Z,100428.19
2023-05-14T10:10:15.025Z,100429.50
2023-05-14T10:12:46.783Z,100428.16
2023-05-14T10:15:18.726Z,100428.09
2023-05-14T10:17:50.653Z,100422.25
2023-05-14T10:20:19.019Z,100437.81
2023-05-14T10:22:47.343Z,100428.84
2023-05-14T10:25:15.781Z,100435.41
2023-05-14T10:27:45.282Z,100432.38
2023-05-14T10:30:14.129Z,100424.78
2023-05-14T10:32:44.012Z,100422.94
2023-05-14T10:35:20.357Z,100424.56
2023-05-14T10:37:48.690Z,100423.94
2023-05-14T10:40:18.464Z,100423.69
2023-05-14T10:42:48.115Z,100431.69
2023-05-14T10:45:17.528Z,100426.94
2023-05-14T10:47:47.479Z,100424.69
2023-05-14T10:50:17.384Z,100429.25
2023-05-14T10:52:46.171Z,100419.34
2023-05-14T10:55:15.646Z,100423.13
2023-05-14T10:57:48.179Z,100421.72
2023-05-14T11:00:17.406Z,100420.78
2023-05-14T11:02:46.729Z,100419.06
2023-05-14T11:05:17.521Z,100410.75
2023-05-14T11:07:46.822Z,100413.66
2023-05-14T11:10:16.445Z,100411.44
2023-05-14T11:12:45.612Z,100407.19
2023-05-14T11:15:16.816Z,100408.59
2023-05-14T11:17:46.129Z,100413.84
2023-05-14T11:20:14.780Z,100401.94
2023-05-14T11:22:43.615Z,100402.09
2023-05-14T11:25:14.289Z,100398.13
2023-05-14T11:27:44.042Z,100392.09
2023-05-14T11:30:18.262Z,100401.28
2023-05-14T11:32:48.340Z,100391.09
2023-05-14T11:35:17.018Z,100396.81
2023-05-14T11:37:51.035Z,100391.28
2023-05-14T11:40:19.962Z,100388.91
2023-05-14T11:42:47.998Z,100397.00
2023-05-14T11:45:26.060Z,100391.69
2023-05-14T11:47:54.736Z,100389.81
2023-05-14T11:50:23.508Z,100391.91
2023-05-14T11:52:51.891Z,100383.78
2023-05-14T11:55:20.888Z,100390.16
2023-05-14T11:57:49.099Z,100385.38
2023-05-14T12:00:22.111Z,100384.09
2023-05-14T12:02:50.748Z,100381.69
2023-05-14T12:05:19.969Z,100383.03
2023-05-14T12:07:48.296Z,100372.38
2023-05-14T12:10:16.570Z,100373.94
2023-05-14T12:12:46.453Z,100368.09
2023-05-14T12:15:16.296Z,100358.81
2023-05-14T12:17:50.730Z,100358.81
2023-05-14T12:20:19.090Z,100361.06
2023-05-14T12:22:47.153Z,100350.97
2023-05-14T12:25:15.554Z,100353.34
2023-05-14T12:27:45.858Z,100353.41
2023-05-14T12:32:48.823Z,100346.69
2023-05-14T12:35:17.483Z,100339.03
2023-05-14T12:37:45.461Z,100339.16
2023-05-14T12:40:13.949Z,100331.94
2023-05-14T12:42:42.072Z,100332.66
2023-05-14T12:45:11.079Z,100336.47
2023-05-14T12:47:39.140Z,100336.47
2023-05-14T12:50:09.860Z,100328.19
2023-05-14T12:52:39.715Z,100330.69
2023-05-14T12:55:09.944Z,100329.38
2023-05-14T12:57:38.849Z,100315.00
2023-05-14T13:00:12.959Z,100318.84
2023-05-14T13:02:43.660Z,100310.94
2023-05-14T13:05:13.901Z,100321.91
2023-05-14T13:07:42.215Z,100318.03
2023-05-14T13:10:11.336Z,100300.06
2023-05-14T13:12:39.636Z,100305.75
2023-05-14T13:15:09.051Z,100306.16
2023-05-14T13:17:37.285Z,100303.31
2023-05-14T13:20:06.654Z,100293.34
2023-05-14T13:22:36.070Z,100294.19
2023-05-14T13:25:04.892Z,100293.06
2023-05-14T13:27:33.627Z,100288.13
2023-05-14T13:30:01.844Z,100291.69
2023-05-14T13:32:29.989Z,100282.16
2023-05-14T13:34:58.289Z,100282.44
2023-05-14T13:37:26.791Z,100277.50
2023-05-14T13:39:56.471Z,100277.91
2023-05-14T13:42:24.573Z,100268.38
2023-05-14T13:44:52.799Z,100261.22
2023-05-14T13:47:20.860Z,100257.78
2023-05-14T13:49:49.096Z,100267.47
2023-05-14T13:52:17.145Z,100255.94
2023-05-14T13:54:45.487Z,100257.25
2023-05-14T13:57:14.918Z,100256.38
2023-05-14T13:59:43.216Z,100253.31
2023-05-14T14:02:11.257Z,100243.06
2023-05-14T14:04:39.498Z,100228.09
2023-05-14T14:07:08.216Z,100228.19
2023-05-14T14:09:36.889Z,100229.47
2023-05-14T14:12:05.537Z,100221.47
2023-05-14T14:14:35.169Z,100225.91
2023-05-14T14:17:03.166Z,100214.44
2023-05-14T14:19:31.389Z,100208.06
2023-05-14T14:21:59.406Z,100209.25
2023-05-14T14:24:27.724Z,100201.84
2023-05-14T14:26:55.875Z,100203.09
2023-05-14T14:29:24.145Z,100206.41
2023-05-14T14:31:53.619Z,100194.75
2023-05-14T14:34:21.864Z,100200.47
2023-05-14T14:36:49.947Z,100200.16
2023-05-14T14:39:18.216Z,100201.91
2023-05-14T14:41:47.506Z,100199.97
2023-05-14T14:44:15.779Z,100189.50
2023-05-14T14:46:43.827Z,100186.81
2023-05-14T14:49:13.424Z,100174.69
2023-05-14T14:51:41.712Z,100175.25
2023-05-14T14:54:09.942Z,100168.47
2023-05-14T14:56:38.129Z,100164.13
2023-05-14T14:59:06.413Z,100163.53
2023-05-14T15:01:34.534Z,100159.25
2023-05-14T15:04:02.993Z,100163.69
2023-05-14T15:06:32.274Z,100163.31
2023-05-14T15:09:00.648Z,100155.47
2023-05-14T15:11:28.824Z,100152.97
2023-05-14T15:13:57.190Z,100154.44
2023-05-14T15:16:25.311Z,100154.44
2023-05-14T15:18:53.731Z,100151.09
2023-05-14T15:21:22.166Z,100152.56
2023-05-14T15:23:51.732Z,100155.13
2023-05-14T15:26:19.813Z,100151.78
2023-05-14T15:28:48.045Z,100144.88
2023-05-14T15:31:16.327Z,100148.84
2023-05-14T15:33:44.631Z,100147.50
2023-05-14T15:36:12.892Z,100141.53
2023-05-14T15:38:42.145Z,100146.13
2023-05-14T15:41:11.505Z,100147.63
2023-05-14T15:43:39.830Z,100145.25
2023-05-14T15:46:07.884Z,100142.97
2023-05-14T15:48:36.785Z,100149.22
2023-05-14T15:51:04.908Z,100136.72
2023-05-14T15:53:33.217Z,100135.88
2023-05-14T15:56:01.275Z,100138.81
2023-05-14T15:58:31.047Z,100137.13
2023-05-14T16:00:59.097Z,100139.81
2023-05-14T16:03:27.415Z,100140.63
2023-05-14T16:05:56.026Z,100134.38
2023-05-14T16:08:24.406Z,100127.28
2023-05-14T16:10:52.433Z,100132.38
2023-05-14T16:13:20.690Z,100125.34
2023-05-14T16:15:51.063Z,100121.78
2023-05-14T16:18:19.540Z,100120.16
2023-05-14T16:20:47.649Z,100123.78
2023-05-14T16:23:15.920Z,100121.41
2023-05-14T16:25:43.960Z,100117.78
2023-05-14T16:28:12.324Z,100121.84
2023-05-14T16:30:40.410Z,100121.34
2023-05-14T16:33:10.013Z,100119.03
2023-05-14T16:35:39.272Z,100114.34
2023-05-14T16:38:07.499Z,100112.41
2023-05-14T16:40:35.735Z,100115.56
2023-05-14T16:43:04.157Z,100120.47
2023-05-14T16:45:34.708Z,100117.44
2023-05-14T16:48:03.037Z,100119.13
2023-05-14T16:50:32.562Z,100116.72
2023-05-14T16:53:00.827Z,100113.47
2023-05-14T16:55:28.873Z,100115.22
2023-05-14T16:57:57.234Z,100116.41
2023-05-14T17:00:25.427Z,100109.84
2023-05-14T17:02:54.114Z,100109.25
2023-05-14T17:05:22.325Z,100116.91
2023-05-14T17:07:52.012Z,100116.41
2023-05-14T17:10:20.039Z,100111.44
2023-05-14T17:12:48.372Z,100111.72
2023-05-14T17:15:16.422Z,100117.03
2023-05-14T17:17:44.883Z,100116.81
2023-05-14T17:20:15.312Z,100117.13
2023-05-14T17:22:44.944Z,100127.41
2023-05-14T17:25:14.544Z,100120.44
2023-05-14T17:27:42.564Z,100115.06
2023-05-14T17:30:11.446Z,100122.66
2023-05-14T17:32:39.602Z,100122.34
2023-05-14T17:35:09.606Z,100109.69
2023-05-14T17:37:37.651Z,100119.25
2023-05-14T17:40:07.043Z,100122.41
2023-05-14T17:42:36.657Z,100129.53
2023-05-14T17:45:05.833Z,100138.63
2023-05-14T17:47:34.070Z,100136.38
2023-05-14T17:50:02.404Z,100137.16
2023-05-14T17:52:30.662Z,100142.19
2023-05-14T17:54:58.964Z,100138.94
2023-05-14T17:57:27.157Z,100128.69
2023-05-14T17:59:56.737Z,100130.69
2023-05-14T18:02:24.953Z,100127.91
2023-05-14T18:04:53.299Z,100132.81
2023-05-14T18:07:22.492Z,100134.19
2023-05-14T18:09:50.763Z,100133.13
2023-05-14T18:12:18.770Z,100134.09
2023-05-14T18:14:47.030Z,100140.44
2023-05-14T18:17:17.154Z,100145.03
2023-05-14T18:19:45.529Z,100144.84
2023-05-14T18:22:13.632Z,100153.66
2023-05-14T18:24:44.037Z,100163.38
2023-05-14T18:27:12.339Z,100157.69
2023-05-14T18:29:40.595Z,100155.19
2023-05-14T18:32:09.097Z,100161.44
2023-05-14T18:34:38.759Z,100165.31
2023-05-14T18:37:07.082Z,100165.59
2023-05-14T18:39:35.443Z,100167.28
2023-05-14T18:42:03.430Z,100169.78
2023-05-14T18:44:31.813Z,100175.19
2023-05-14T18:47:00.456Z,100183.63
2023-05-14T18:49:28.754Z,100181.41
2023-05-14T18:51:58.162Z,100184.31
2023-05-14T18:54:26.461Z,100188.22
2023-05-14T18:56:54.507Z,100187.84
2023-05-14T18:59:22.859Z,100193.25
2023-05-14T19:01:51.259Z,100193.66
2023-05-14T19:04:19.599Z,100195.63
2023-05-14T19:06:47.616Z,100214.13
2023-05-14T19:09:20.903Z,100214.31
2023-05-14T19:11:49.084Z,100215.13
2023-05-14T19:14:17.376Z,100230.78
2023-05-14T19:16:45.455Z,100232.69
2023-05-14T19:19:13.914Z,100240.38
2023-05-14T19:21:41.985Z,100244.63
2023-05-14T19:24:10.283Z,100252.50
2023-05-14T19:26:39.745Z,100257.03
2023-05-14T19:29:08.047Z,100242.78
2023-05-14T19:31:36.122Z,100239.13
2023-05-14T19:34:04.453Z,100234.91
2023-05-14T19:36:32.580Z,100218.56
2023-05-14T19:39:00.923Z,100229.84
2023-05-14T19:41:29.194Z,100230.91
2023-05-14T19:43:58.791Z,100228.53
2023-05-14T19:46:27.331Z,100229.75
2023-05-14T19:48:55.573Z,100229.13
2023-05-14T19:51:23.626Z,100219.72
2023-05-14T19:53:51.910Z,100219.06
2023-05-14T19:56:20.067Z,100217.25
2023-05-14T19:58:48.349Z,100216.41
2023-05-14T20:01:17.797Z,100219.38
2023-05-14T20:03:46.083Z,100222.31
2023-05-14T20:06:14.390Z,100225.91
2023-05-14T20:08:42.769Z,100229.63
2023-05-14T20:11:10.914Z,100238.22
2023-05-14T20:13:39.257Z,100245.09
2023-05-14T20:16:07.444Z,100248.75
2023-05-14T20:18:37.110Z,100241.03
2023-05-14T20:21:05.531Z,100242.31
2023-05-14T20:23:33.779Z,100247.00
2023-05-14T20:26:02.316Z,100255.75
2023-05-14T20:28:30.626Z,100248.38
2023-05-14T20:31:00.166Z,100249.88
2023-05-14T20:33:29.170Z,100247.19
2023-05-14T20:35:58.668Z,100246.09
2023-05-14T20:38:29.302Z,100242.34
2023-05-14T20:40:57.504Z,100240.56
2023-05-14T20:43:27.290Z,100234.72
2023-05-14T20:45:57.648Z,100231.03
2023-05-14T20:48:26.155Z,100226.75
2023-05-14T20:50:54.186Z,100226.25
2023-05-14T20:53:25.236Z,100224.59
2023-05-14T20:55:53.280Z,100226.38
2023-05-14T20:58:21.557Z,100226.19
2023-05-14T21:00:49.605Z,100220.84
2023-05-14T21:03:18.018Z,100222.09
2023-05-14T21:05:46.143Z,100208.69
2023-05-14T21:08:14.401Z,100213.59
2023-05-14T21:10:43.757Z,100216.66
2023-05-14T21:13:11.943Z,100212.47
2023-05-14T21:15:39.966Z,100200.97
2023-05-14T21:18:08.330Z,100206.31
2023-05-14T21:20:36.648Z,100205.81
2023-05-14T21:23:04.874Z,100202.16
2023-05-14T21:25:32.951Z,100203.75
2023-05-14T21:28:02.534Z,100190.34
2023-05-14T21:30:30.598Z,100192.25
2023-05-14T21:32:58.909Z,100201.91
2023-05-14T21:35:27.162Z,100189.22
2023-05-14T21:37:55.616Z,100193.78
2023-05-14T21:40:23.592Z,100183.25
2023-05-14T21:42:51.786Z,100188.00
2023-05-14T21:45:23.400Z,100175.91
2023-05-14T21:47:52.114Z,100174.72
2023-05-14T21:50:20.421Z,100169.00
2023-05-14T21:52:48.652Z,100180.31
2023-05-14T21:55:16.849Z,100180.78
2023-05-14T21:57:45.124Z,100173.72
2023-05-14T22:00:18.448Z,100167.09
2023-05-14T22:02:48.134Z,100164.00
2023-05-14T22:05:16.218Z,100164.97
2023-05-14T22:07:44.520Z,100161.59
2023-05-14T22:10:13.801Z,100167.31
2023-05-14T22:12:42.952Z,100153.84
2023-05-14T22:15:11.929Z,100164.56
2023-05-14T22:17:40.301Z,100168.06
2023-05-14T22:20:11.180Z,100154.94
2023-05-14T22:22:39.595Z,100157.34
2023-05-14T22:25:08.266Z,100168.72
2023-05-14T22:27:36.572Z,100164.44
2023-05-14T22:30:05.321Z,100152.88
2023-05-14T22:32:33.737Z,100153.53
2023-05-14T22:35:01.818Z,100164.38
2023-05-14T22:37:31.600Z,100168.41
2023-05-14T22:39:59.556Z,100174.56
2023-05-14T22:42:28.366Z,100170.59
2023-05-14T22:44:56.299Z,100163.44
2023-05-14T22:47:24.798Z,100163.44
2023-05-14T22:49:52.915Z,100161.34
2023-05-14T22:52:21.216Z,100166.47
2023-05-14T22:54:51.011Z,100164.31
2023-05-14T22:57:19.308Z,100158.06
2023-05-14T22:59:47.355Z,100157.63
2023-05-14T23:02:15.799Z,100143.81
2023-05-14T23:04:44.269Z,100151.00
2023-05-14T23:07:12.541Z,100155.25
2023-05-14T23:09:40.494Z,100146.81
2023-05-14T23:12:10.665Z,100149.47
2023-05-14T23:14:38.680Z,100139.44
2023-05-14T23:17:06.926Z,100146.16
2023-05-14T23:19:34.977Z,100145.59
2023-05-14T23:22:03.328Z,100151.72
2023-05-14T23:24:31.334Z,100142.75
2023-05-14T23:26:59.533Z,100146.38
2023-05-14T23:29:28.849Z,100133.56
2023-05-14T23:31:57.264Z,100144.19
